Time;durP1;ratioP1;P1;durP2;ratioP2;P2;SDS_P1;SDS_P2;PMS_P1;PMS_P2;Temp;Humidity;BMP_temperature;BMP_pressure;BME280_temperature;BME280_humidity;BME280_pressure;Samples;Min_cycle;Max_cycle;Signal;HPM_P1;HPM_P2
2023/08/30 00:00:22;;;;;;;8.63;4.45;;;15.90;99.90;;;;;;4980967;28;20027;-68
2023/08/30 00:02:48;;;;;;;13.75;3.92;;;15.80;99.90;;;;;;4981047;28;20078;-68
2023/08/30 00:05:14;;;;;;;13.32;4.20;;;15.70;99.90;;;;;;4981038;28;20019;-68
2023/08/30 00:07:40;;;;;;;8.07;4.65;;;15.70;99.90;;;;;;4980306;28;20030;-68
2023/08/30 00:10:07;;;;;;;8.27;4.32;;;15.60;99.90;;;;;;4980622;28;20023;-68
2023/08/30 00:12:33;;;;;;;8.68;4.50;;;15.60;99.90;;;;;;4980741;28;20022;-68
2023/08/30 00:14:59;;;;;;;10.50;5.10;;;15.60;99.90;;;;;;4980079;28;20082;-68
2023/08/30 00:17:25;;;;;;;10.13;4.53;;;15.60;99.90;;;;;;4980191;28;20031;-68
2023/08/30 00:19:52;;;;;;;9.68;5.63;;;15.50;99.90;;;;;;4979806;28;20031;-68
2023/08/30 00:22:18;;;;;;;9.27;5.07;;;15.40;99.90;;;;;;4979701;28;20031;-68
2023/08/30 00:24:45;;;;;;;9.20;4.82;;;15.50;99.90;;;;;;4980662;28;20081;-68
2023/08/30 00:27:10;;;;;;;5.45;4.15;;;15.60;99.90;;;;;;4980668;28;20090;-68
2023/08/30 00:29:36;;;;;;;6.43;4.18;;;15.60;99.90;;;;;;4980441;28;20031;-68
2023/08/30 00:32:01;;;;;;;11.20;4.25;;;15.80;99.90;;;;;;4979422;28;20029;-68
2023/08/30 00:34:27;;;;;;;5.88;3.92;;;15.80;99.90;;;;;;4980440;28;20031;-68
2023/08/30 00:36:53;;;;;;;5.18;3.90;;;15.90;99.90;;;;;;4979530;28;20061;-68
2023/08/30 00:39:18;;;;;;;5.35;3.92;;;15.80;99.90;;;;;;4979440;28;20066;-68
2023/08/30 00:41:44;;;;;;;6.72;3.90;;;15.80;99.90;;;;;;4980252;28;20038;-68
2023/08/30 00:44:10;;;;;;;7.70;4.38;;;15.80;99.90;;;;;;4979900;28;20082;-68
2023/08/30 00:46:36;;;;;;;7.32;4.93;;;15.80;99.90;;;;;;4980129;28;20031;-68
2023/08/30 00:49:02;;;;;;;16.40;5.00;;;15.50;99.90;;;;;;4979655;28;20109;-68
2023/08/30 00:51:27;;;;;;;7.43;4.15;;;15.30;99.90;;;;;;4980307;28;20026;-68
2023/08/30 00:53:55;;;;;;;9.93;4.75;;;15.40;99.90;;;;;;4980035;28;20031;-68
2023/08/30 00:56:21;;;;;;;7.70;4.60;;;15.40;99.90;;;;;;4980141;28;20050;-68
2023/08/30 00:58:49;;;;;;;21.83;5.72;;;15.60;99.90;;;;;;4979324;28;20027;-68
2023/08/30 01:01:16;;;;;;;7.30;4.53;;;15.60;99.90;;;;;;4979839;28;20027;-68
2023/08/30 01:03:41;;;;;;;21.23;5.43;;;15.60;99.90;;;;;;4979109;28;20027;-68
2023/08/30 01:06:07;;;;;;;14.93;5.32;;;15.50;99.90;;;;;;4978000;28;20023;-68
2023/08/30 01:08:34;;;;;;;10.73;5.28;;;15.30;99.90;;;;;;4978881;28;20039;-68
2023/08/30 01:11:20;;;;;;;7.15;4.97;;;15.20;99.90;;;;;;4979619;28;20019;-68
2023/08/30 01:14:05;;;;;;;9.95;4.95;;;15.10;99.90;;;;;;4979662;28;20031;-68
2023/08/30 01:16:31;;;;;;;15.10;5.18;;;15.00;99.90;;;;;;4979690;28;20027;-68
2023/08/30 01:19:00;;;;;;;6.13;4.63;;;15.00;99.90;;;;;;4978921;28;20023;-68
2023/08/30 01:21:55;;;;;;;7.22;4.32;;;14.90;99.90;;;;;;4978997;28;20117;-68
2023/08/30 01:24:29;;;;;;;7.05;4.47;;;15.00;99.90;;;;;;4978543;28;20062;-68
2023/08/30 01:27:09;;;;;;;8.30;5.25;;;15.00;99.90;;;;;;4978607;28;20027;-68
2023/08/30 01:29:37;;;;;;;6.00;4.30;;;15.00;99.90;;;;;;4979524;28;20054;-68
2023/08/30 01:32:04;;;;;;;17.50;5.85;;;15.00;99.90;;;;;;4979361;28;20078;-68
2023/08/30 01:34:30;;;;;;;37.20;5.60;;;15.00;99.90;;;;;;4979197;28;20034;-68
2023/08/30 01:36:57;;;;;;;9.02;5.20;;;14.80;99.90;;;;;;4979267;28;20034;-68
2023/08/30 01:39:24;;;;;;;12.98;5.30;;;14.70;99.90;;;;;;4979273;28;20027;-68
2023/08/30 01:41:52;;;;;;;14.98;5.07;;;14.70;99.90;;;;;;4979116;28;20026;-68
2023/08/30 01:44:17;;;;;;;27.73;5.38;;;14.60;99.90;;;;;;4979091;28;20023;-68
2023/08/30 01:46:45;;;;;;;19.10;5.05;;;14.50;99.90;;;;;;4979205;28;20054;-68
2023/08/30 01:49:12;;;;;;;13.82;5.47;;;14.50;99.90;;;;;;4978143;28;20038;-68
2023/08/30 01:51:39;;;;;;;18.50;5.50;;;14.60;99.90;;;;;;4978019;28;20031;-68
2023/08/30 01:54:05;;;;;;;16.92;5.57;;;14.70;99.90;;;;;;4978758;28;20023;-68
2023/08/30 01:56:31;;;;;;;9.20;5.65;;;14.70;99.90;;;;;;4979023;28;20081;-68
2023/08/30 01:58:56;;;;;;;6.55;4.47;;;14.70;99.90;;;;;;4978855;28;20110;-68
2023/08/30 02:01:22;;;;;;;10.48;5.25;;;14.90;99.90;;;;;;4977790;28;20022;-68
2023/08/30 02:03:47;;;;;;;8.75;5.53;;;14.80;99.90;;;;;;4977981;28;20027;-68
2023/08/30 02:06:29;;;;;;;10.55;5.80;;;14.80;99.90;;;;;;4978942;28;20101;-68
2023/08/30 02:09:14;;;;;;;12.30;5.50;;;14.70;99.90;;;;;;4978057;28;20026;-68
2023/08/30 02:11:44;;;;;;;19.83;5.72;;;14.60;99.90;;;;;;4978527;28;20034;-68
2023/08/30 02:14:11;;;;;;;20.10;5.45;;;14.50;99.90;;;;;;4978195;28;20018;-68
2023/08/30 02:16:39;;;;;;;8.77;5.03;;;14.30;99.90;;;;;;4977568;28;20058;-68
2023/08/30 02:19:06;;;;;;;7.32;5.03;;;14.40;99.90;;;;;;4978590;28;20027;-68
2023/08/30 02:21:32;;;;;;;9.00;4.82;;;14.50;99.90;;;;;;4978719;28;20085;-68
2023/08/30 02:23:57;;;;;;;24.80;6.15;;;14.50;99.90;;;;;;4978381;28;20031;-68
2023/08/30 02:26:23;;;;;;;10.27;5.13;;;14.40;99.90;;;;;;4978563;28;20023;-68
2023/08/30 02:28:48;;;;;;;10.60;5.38;;;14.30;99.90;;;;;;4978523;28;20043;-68
2023/08/30 02:31:14;;;;;;;7.53;4.07;;;14.20;99.90;;;;;;4978483;28;20030;-68
2023/08/30 02:33:39;;;;;;;10.43;4.65;;;14.30;99.90;;;;;;4977506;28;20023;-68
2023/08/30 02:36:05;;;;;;;10.38;4.78;;;14.30;99.90;;;;;;4978623;28;20027;-68
2023/08/30 02:38:30;;;;;;;56.28;6.75;;;14.40;99.90;;;;;;4977463;28;20054;-68
2023/08/30 02:40:56;;;;;;;12.35;5.72;;;14.30;99.90;;;;;;4978479;28;20043;-68
2023/08/30 02:43:22;;;;;;;11.10;5.18;;;14.30;99.90;;;;;;4978222;28;20037;-68
2023/08/30 02:45:48;;;;;;;8.80;5.45;;;14.20;99.90;;;;;;4977231;28;20067;-68
2023/08/30 02:48:14;;;;;;;8.63;4.47;;;14.20;99.90;;;;;;4977284;28;20058;-68
2023/08/30 02:50:40;;;;;;;7.15;4.72;;;14.30;99.90;;;;;;4978592;28;20035;-68
2023/08/30 02:53:08;;;;;;;8.10;4.30;;;14.40;99.90;;;;;;4977586;28;20034;-68
2023/08/30 02:55:34;;;;;;;7.65;4.70;;;14.50;99.90;;;;;;4977185;28;20058;-68
2023/08/30 02:58:00;;;;;;;8.32;5.30;;;14.60;99.90;;;;;;4978254;28;20121;-68
2023/08/30 03:00:25;;;;;;;9.27;4.90;;;14.50;99.90;;;;;;4978199;28;20031;-68
2023/08/30 03:02:51;;;;;;;7.32;4.53;;;14.50;99.90;;;;;;4978406;28;20038;-68
2023/08/30 03:05:17;;;;;;;7.25;5.15;;;14.50;99.90;;;;;;4977275;28;20049;-68
2023/08/30 03:07:42;;;;;;;8.98;4.65;;;14.40;99.90;;;;;;4993539;28;20118;-68
2023/08/30 03:10:08;;;;;;;12.48;5.85;;;14.40;99.90;;;;;;4994277;28;20023;-68
2023/08/30 03:12:34;;;;;;;8.95;5.05;;;14.30;99.90;;;;;;4978018;28;20019;-68
2023/08/30 03:14:59;;;;;;;10.27;5.55;;;14.20;99.90;;;;;;4978265;28;20042;-68
2023/08/30 03:17:25;;;;;;;8.95;5.60;;;14.30;99.90;;;;;;4993468;28;20031;-68
2023/08/30 03:19:53;;;;;;;8.93;5.70;;;14.40;99.90;;;;;;4977794;28;20037;-68
2023/08/30 03:22:19;;;;;;;13.18;5.60;;;14.40;99.90;;;;;;4977304;28;20031;-68
2023/08/30 03:24:44;;;;;;;12.90;6.38;;;14.40;99.90;;;;;;4993014;28;20080;-68
2023/08/30 03:27:10;;;;;;;7.65;5.15;;;14.40;99.90;;;;;;4993118;28;20019;-68
2023/08/30 03:29:36;;;;;;;10.68;5.60;;;14.40;99.90;;;;;;4981255;28;20035;-68
2023/08/30 03:32:01;;;;;;;11.05;6.03;;;14.50;99.90;;;;;;4996901;28;20027;-68
2023/08/30 03:34:27;;;;;;;9.85;6.43;;;14.50;99.90;;;;;;4981508;28;20086;-68
2023/08/30 03:36:54;;;;;;;10.80;5.60;;;14.50;99.90;;;;;;4996779;28;20033;-68
2023/08/30 03:39:20;;;;;;;9.60;5.30;;;14.60;99.90;;;;;;4981949;28;20105;-68
2023/08/30 03:41:46;;;;;;;6.95;4.65;;;14.60;99.90;;;;;;4981466;28;20053;-68
2023/08/30 03:44:12;;;;;;;10.10;5.22;;;14.70;99.90;;;;;;4996767;28;20094;-68
2023/08/30 03:46:37;;;;;;;11.38;6.70;;;14.70;99.90;;;;;;4996642;28;20031;-68
2023/08/30 03:49:03;;;;;;;8.43;5.45;;;14.70;99.90;;;;;;4981842;28;20031;-68
2023/08/30 03:51:29;;;;;;;8.10;5.60;;;14.70;99.90;;;;;;4981647;28;20035;-68
2023/08/30 03:53:56;;;;;;;8.60;5.72;;;14.70;99.90;;;;;;4997274;28;20030;-68
2023/08/30 03:56:22;;;;;;;12.90;5.70;;;14.60;99.90;;;;;;4996687;28;20066;-68
2023/08/30 03:58:47;;;;;;;6.53;5.10;;;14.60;99.90;;;;;;4981463;28;20031;-68
2023/08/30 04:01:13;;;;;;;8.10;5.20;;;14.70;99.90;;;;;;4996576;28;20030;-68
2023/08/30 04:03:39;;;;;;;8.68;5.60;;;14.60;99.90;;;;;;4981137;28;20066;-68
2023/08/30 04:06:05;;;;;;;8.15;4.63;;;14.50;99.90;;;;;;4981180;28;20081;-68
2023/08/30 04:08:30;;;;;;;6.45;5.18;;;14.50;99.90;;;;;;4996251;28;20031;-68
2023/08/30 04:10:56;;;;;;;7.75;5.88;;;14.50;99.90;;;;;;4980839;28;20098;-68
2023/08/30 04:13:21;;;;;;;8.63;4.53;;;14.40;99.90;;;;;;4981176;28;20054;-68
2023/08/30 04:15:47;;;;;;;6.97;4.78;;;14.40;99.90;;;;;;4995995;28;20086;-68
2023/08/30 04:18:13;;;;;;;6.88;4.50;;;14.20;99.90;;;;;;4980812;28;20053;-68
2023/08/30 04:20:46;;;;;;;8.50;4.63;;;14.40;99.90;;;;;;4980508;28;20027;-68
2023/08/30 04:23:12;;;;;;;10.43;5.35;;;14.40;99.90;;;;;;4980931;28;20089;-68
2023/08/30 04:25:37;;;;;;;7.53;4.65;;;14.40;99.90;;;;;;4995910;28;20023;-68
2023/08/30 04:28:03;;;;;;;9.65;5.53;;;14.40;99.90;;;;;;4996166;28;20023;-68
2023/08/30 04:30:29;;;;;;;11.35;5.53;;;14.20;99.90;;;;;;4995697;28;20026;-68
2023/08/30 04:32:54;;;;;;;10.73;5.82;;;14.20;99.90;;;;;;4995703;28;20027;-68
2023/08/30 04:35:20;;;;;;;10.40;5.38;;;14.20;99.90;;;;;;4996548;28;20058;-68
2023/08/30 04:37:45;;;;;;;11.90;5.30;;;14.20;99.90;;;;;;4980426;28;20041;-68
2023/08/30 04:40:11;;;;;;;8.95;4.82;;;14.20;99.90;;;;;;4995631;28;20029;-68
2023/08/30 04:42:39;;;;;;;8.90;4.28;;;14.30;99.90;;;;;;4980302;28;20031;-68
2023/08/30 04:45:05;;;;;;;9.25;4.78;;;14.40;99.90;;;;;;4980402;28;20023;-68
2023/08/30 04:47:31;;;;;;;7.95;4.57;;;14.50;99.90;;;;;;4995597;28;20023;-68
2023/08/30 04:49:57;;;;;;;6.50;4.47;;;14.60;99.90;;;;;;4995251;28;20022;-68
2023/08/30 04:52:22;;;;;;;6.78;4.30;;;14.70;99.90;;;;;;4996112;28;20023;-68
2023/08/30 04:54:51;;;;;;;7.40;4.30;;;14.70;99.90;;;;;;4979137;28;20030;-68
2023/08/30 04:57:17;;;;;;;6.72;4.57;;;14.70;99.90;;;;;;4995367;28;20031;-68
2023/08/30 04:59:44;;;;;;;7.30;4.38;;;14.80;99.90;;;;;;4979967;28;20023;-68
2023/08/30 05:02:10;;;;;;;8.65;4.80;;;14.80;99.90;;;;;;4979939;28;20023;-68
2023/08/30 05:04:36;;;;;;;5.75;3.95;;;14.70;99.90;;;;;;4995478;28;20069;-68
2023/08/30 05:07:02;;;;;;;7.18;3.92;;;14.60;99.90;;;;;;4995368;28;20046;-68
2023/08/30 05:09:29;;;;;;;7.20;4.68;;;14.60;99.90;;;;;;4979725;28;20102;-68
2023/08/30 05:11:54;;;;;;;8.80;4.88;;;14.50;99.90;;;;;;4995434;28;20023;-68
2023/08/30 05:14:23;;;;;;;7.38;4.68;;;14.50;99.90;;;;;;4994944;28;20122;-68
2023/08/30 05:16:51;;;;;;;11.02;4.90;;;14.50;99.90;;;;;;4979625;28;20058;-68
2023/08/30 05:19:17;;;;;;;8.43;4.40;;;14.40;99.90;;;;;;4995019;28;20031;-68
2023/08/30 05:21:43;;;;;;;10.25;4.85;;;14.40;99.90;;;;;;4994810;28;20050;-68
2023/08/30 05:24:08;;;;;;;7.60;5.18;;;14.50;99.90;;;;;;4994899;28;20038;-68
2023/08/30 05:26:34;;;;;;;7.25;4.13;;;14.50;99.90;;;;;;4994669;28;20026;-68
2023/08/30 05:28:59;;;;;;;11.90;4.75;;;14.60;99.90;;;;;;4994606;28;20034;-68
2023/08/30 05:31:25;;;;;;;7.05;4.15;;;14.70;99.90;;;;;;4994724;28;20081;-68
2023/08/30 05:33:50;;;;;;;13.27;4.53;;;14.70;99.90;;;;;;4994838;28;20078;-68
2023/08/30 05:36:16;;;;;;;7.13;4.47;;;14.70;99.90;;;;;;4979518;28;20030;-68
2023/08/30 05:38:42;;;;;;;9.25;4.55;;;14.60;99.90;;;;;;4994829;28;20034;-68
2023/08/30 05:41:08;;;;;;;10.23;5.10;;;14.50;99.90;;;;;;4995002;28;20114;-68
2023/08/30 05:43:33;;;;;;;8.68;4.85;;;14.50;99.90;;;;;;4994778;28;20027;-68
2023/08/30 05:46:02;;;;;;;12.23;5.32;;;14.50;99.90;;;;;;4994189;28;20019;-68
2023/08/30 05:48:28;;;;;;;8.32;5.30;;;14.40;99.90;;;;;;4994339;28;20042;-68
2023/08/30 05:50:53;;;;;;;12.48;5.50;;;14.30;99.90;;;;;;4978513;28;20048;-68
2023/08/30 05:53:19;;;;;;;8.70;4.65;;;14.20;99.90;;;;;;4979196;28;20027;-68
2023/08/30 05:55:44;;;;;;;9.30;5.93;;;14.20;99.90;;;;;;4994122;28;20023;-68
2023/08/30 05:58:10;;;;;;;11.68;5.75;;;14.30;99.90;;;;;;4994977;28;20046;-68
2023/08/30 06:00:35;;;;;;;7.47;5.28;;;14.30;99.90;;;;;;4994442;28;20140;-68
2023/08/30 06:03:02;;;;;;;7.75;5.55;;;14.40;99.90;;;;;;4994221;28;20143;-68
2023/08/30 06:05:28;;;;;;;10.25;5.95;;;14.40;99.90;;;;;;4978955;28;20018;-68
2023/08/30 06:07:54;;;;;;;16.95;6.95;;;14.40;99.90;;;;;;4994124;28;20023;-68
2023/08/30 06:10:19;;;;;;;9.25;6.10;;;14.30;99.90;;;;;;4978910;28;20022;-68
2023/08/30 06:12:45;;;;;;;13.18;6.65;;;14.60;99.90;;;;;;4994241;28;20118;-68
2023/08/30 06:15:11;;;;;;;10.27;6.80;;;14.70;99.90;;;;;;4993879;28;20026;-68
2023/08/30 06:17:36;;;;;;;8.98;5.82;;;14.90;99.90;;;;;;4978632;28;20026;-68
2023/08/30 06:20:02;;;;;;;8.68;5.82;;;15.10;99.90;;;;;;4993691;28;20031;-68
2023/08/30 06:22:28;;;;;;;10.65;7.28;;;15.20;99.90;;;;;;4978470;28;20023;-68
2023/08/30 06:24:53;;;;;;;12.55;7.40;;;15.00;99.90;;;;;;4994063;28;20038;-68
2023/08/30 06:27:20;;;;;;;18.77;7.63;;;14.80;99.90;;;;;;4993678;28;20061;-68
2023/08/30 06:29:45;;;;;;;11.43;6.82;;;14.50;99.90;;;;;;4978355;28;20019;-68
2023/08/30 06:32:11;;;;;;;12.10;7.63;;;14.50;99.90;;;;;;4993750;28;20025;-68
2023/08/30 06:34:36;;;;;;;11.32;7.28;;;14.50;99.90;;;;;;4993859;28;20058;-68
2023/08/30 06:37:02;;;;;;;12.90;6.80;;;14.60;99.90;;;;;;4993811;28;20034;-68
2023/08/30 06:39:34;;;;;;;12.23;7.40;;;14.60;99.90;;;;;;4978329;28;20022;-68
2023/08/30 06:42:00;;;;;;;13.98;7.63;;;14.80;99.90;;;;;;4978177;28;20078;-68
2023/08/30 06:44:25;;;;;;;12.43;8.02;;;14.80;99.90;;;;;;4978262;28;20030;-68
2023/08/30 06:46:51;;;;;;;16.60;7.55;;;14.80;99.90;;;;;;4994114;28;20023;-68
2023/08/30 06:49:16;;;;;;;13.18;7.30;;;15.00;99.90;;;;;;4994248;28;20033;-68
2023/08/30 06:51:42;;;;;;;14.68;8.52;;;15.20;99.90;;;;;;4977445;28;20046;-68
2023/08/30 06:54:07;;;;;;;12.70;7.97;;;15.10;99.90;;;;;;4993737;28;20023;-68
2023/08/30 06:56:33;;;;;;;15.35;8.50;;;15.30;99.90;;;;;;4993716;28;20113;-68
2023/08/30 06:58:58;;;;;;;11.50;7.60;;;15.30;99.90;;;;;;4978016;28;20027;-68
2023/08/30 07:01:24;;;;;;;12.60;7.75;;;15.30;99.90;;;;;;4993268;28;20038;-68
2023/08/30 07:03:49;;;;;;;15.25;8.20;;;15.50;99.90;;;;;;4980458;28;20026;-68
2023/08/30 07:06:15;;;;;;;13.25;7.78;;;15.60;99.90;;;;;;4981935;28;20023;-68
2023/08/30 07:08:40;;;;;;;14.05;8.60;;;15.70;99.90;;;;;;4998423;28;20043;-69
2023/08/30 07:11:06;;;;;;;15.02;9.00;;;15.60;99.90;;;;;;4997509;28;20030;-68
2023/08/30 07:13:31;;;;;;;15.95;8.25;;;15.60;99.90;;;;;;4997385;28;20038;-69
2023/08/30 07:15:57;;;;;;;14.23;8.80;;;15.70;99.90;;;;;;4997143;28;20022;-68
2023/08/30 07:18:22;;;;;;;18.40;9.60;;;15.70;99.90;;;;;;4997148;28;20030;-68
2023/08/30 07:20:48;;;;;;;18.80;9.93;;;15.80;99.90;;;;;;4997684;28;20030;-68
2023/08/30 07:23:13;;;;;;;17.63;10.52;;;15.50;99.90;;;;;;4981653;28;20031;-69
2023/08/30 07:25:39;;;;;;;16.40;8.45;;;15.60;99.90;;;;;;4996858;28;20031;-68
2023/08/30 07:28:05;;;;;;;15.13;9.25;;;15.50;99.90;;;;;;4981547;28;20078;-68
2023/08/30 07:30:31;;;;;;;18.58;9.70;;;15.60;99.90;;;;;;4981893;28;20023;-69
2023/08/30 07:32:56;;;;;;;19.13;9.80;;;15.40;99.90;;;;;;4996985;28;20038;-68
2023/08/30 07:35:22;;;;;;;14.05;9.75;;;15.30;99.90;;;;;;4997174;28;20026;-69
2023/08/30 07:37:48;;;;;;;16.33;8.95;;;15.40;99.90;;;;;;4996835;28;20054;-68
2023/08/30 07:40:14;;;;;;;15.45;10.20;;;15.50;99.90;;;;;;4996682;28;20084;-69
2023/08/30 07:42:39;;;;;;;21.33;11.05;;;15.60;99.90;;;;;;4997629;28;20027;-69
2023/08/30 07:45:05;;;;;;;17.42;9.27;;;15.60;99.90;;;;;;4981466;28;20085;-68
2023/08/30 07:47:31;;;;;;;18.38;10.13;;;15.60;99.90;;;;;;4981482;28;20110;-67
2023/08/30 07:49:56;;;;;;;14.70;9.10;;;15.50;99.90;;;;;;4997335;28;20074;-68
2023/08/30 07:52:22;;;;;;;15.60;10.30;;;15.40;99.90;;;;;;4981435;28;20082;-68
2023/08/30 07:54:47;;;;;;;15.23;9.57;;;15.50;99.90;;;;;;4996538;28;20019;-68
2023/08/30 07:57:24;;;;;;;14.38;8.82;;;15.80;99.90;;;;;;4996377;28;20022;-68
2023/08/30 07:59:49;;;;;;;15.32;10.20;;;16.10;99.90;;;;;;4996468;28;20027;-67
2023/08/30 08:02:15;;;;;;;18.15;10.77;;;16.10;99.90;;;;;;4980986;28;20038;-68
2023/08/30 08:04:41;;;;;;;13.30;8.70;;;16.20;99.90;;;;;;4996603;28;20033;-68
2023/08/30 08:07:07;;;;;;;13.00;9.32;;;16.20;99.90;;;;;;4981119;28;20034;-68
2023/08/30 08:09:33;;;;;;;16.55;9.93;;;16.20;99.90;;;;;;4996221;28;20023;-67
2023/08/30 08:11:59;;;;;;;16.80;10.18;;;16.30;99.90;;;;;;4996533;28;20019;-68
2023/08/30 08:14:24;;;;;;;17.90;9.52;;;16.30;99.90;;;;;;4995543;28;20029;-68
2023/08/30 08:16:50;;;;;;;16.58;9.75;;;16.10;99.90;;;;;;4996043;28;20027;-67
2023/08/30 08:19:16;;;;;;;14.05;9.32;;;16.00;99.90;;;;;;4996426;28;20030;-68
2023/08/30 08:21:41;;;;;;;10.85;7.85;;;15.90;99.90;;;;;;4995928;28;20109;-68
2023/08/30 08:24:07;;;;;;;15.35;8.38;;;16.20;99.90;;;;;;4980664;28;20038;-68
2023/08/30 08:26:32;;;;;;;12.25;8.07;;;16.60;99.90;;;;;;4995796;28;20033;-68
2023/08/30 08:28:58;;;;;;;16.23;9.73;;;16.70;99.90;;;;;;4996612;28;20023;-68
2023/08/30 08:31:23;;;;;;;12.75;8.95;;;16.70;99.90;;;;;;4980529;28;20030;-67
2023/08/30 08:34:10;;;;;;;17.48;9.63;;;16.90;99.90;;;;;;4996943;28;20023;-67
2023/08/30 08:36:37;;;;;;;18.75;9.65;;;16.80;99.90;;;;;;4995779;28;20117;-67
2023/08/30 08:39:04;;;;;;;12.65;8.93;;;16.60;99.90;;;;;;4980256;28;20033;-67
2023/08/30 08:41:43;;;;;;;13.93;9.20;;;16.60;99.90;;;;;;4995664;28;20031;-67
2023/08/30 08:44:10;;;;;;;11.88;8.15;;;16.70;99.90;;;;;;4995881;28;20027;-67
2023/08/30 08:46:38;;;;;;;12.68;9.05;;;17.00;99.90;;;;;;4979230;28;20031;-67
2023/08/30 08:49:15;;;;;;;14.95;9.40;;;17.20;99.90;;;;;;4980461;28;20027;-67
2023/08/30 08:51:42;;;;;;;14.60;9.68;;;17.10;99.90;;;;;;4979690;28;20089;-67
2023/08/30 08:54:09;;;;;;;11.32;7.90;;;17.00;99.90;;;;;;4980445;28;20023;-67
2023/08/30 08:56:35;;;;;;;12.93;7.97;;;17.10;99.90;;;;;;4995659;28;20041;-68
2023/08/30 08:59:01;;;;;;;13.63;7.45;;;17.20;99.90;;;;;;4995661;28;20026;-68
2023/08/30 09:01:28;;;;;;;11.45;8.63;;;17.40;99.90;;;;;;4979285;28;20034;-68
2023/08/30 09:03:54;;;;;;;14.13;9.10;;;17.50;99.90;;;;;;4995225;28;20033;-67
2023/08/30 09:06:20;;;;;;;15.70;9.20;;;17.40;99.90;;;;;;4995159;28;20023;-67
2023/08/30 09:08:46;;;;;;;18.05;8.43;;;17.30;99.90;;;;;;4979742;28;20026;-68
2023/08/30 09:11:12;;;;;;;14.13;8.60;;;17.20;99.90;;;;;;4980060;28;20027;-68
2023/08/30 09:13:37;;;;;;;13.18;8.77;;;17.50;99.90;;;;;;4979905;28;20034;-68
2023/08/30 09:16:10;;;;;;;15.07;9.45;;;17.60;99.90;;;;;;4979973;28;20027;-68
2023/08/30 09:18:36;;;;;;;12.85;8.95;;;17.90;99.90;;;;;;4994997;28;20116;-68
2023/08/30 09:21:08;;;;;;;12.82;8.25;;;18.10;99.90;;;;;;4979731;28;20030;-68
2023/08/30 09:23:34;;;;;;;13.90;8.27;;;18.30;99.90;;;;;;4979546;28;20037;-68
2023/08/30 09:26:00;;;;;;;11.63;7.72;;;18.60;99.90;;;;;;4993852;28;20031;-68
2023/08/30 09:28:26;;;;;;;12.23;8.38;;;18.70;99.90;;;;;;4994907;28;20065;-68
2023/08/30 09:30:53;;;;;;;17.10;10.48;;;18.70;99.90;;;;;;4994724;28;20039;-68
2023/08/30 09:33:36;;;;;;;13.70;8.27;;;18.70;99.90;;;;;;4994615;28;20023;-68
2023/08/30 09:36:02;;;;;;;18.20;9.10;;;18.70;99.90;;;;;;4994695;28;20023;-68
2023/08/30 09:38:27;;;;;;;17.52;8.60;;;18.90;99.90;;;;;;4994549;28;20031;-68
2023/08/30 09:41:06;;;;;;;14.55;8.70;;;19.00;99.90;;;;;;4994736;28;20023;-68
2023/08/30 09:43:35;;;;;;;18.35;9.05;;;19.10;99.90;;;;;;4994512;28;20050;-68
2023/08/30 09:46:05;;;;;;;12.10;8.18;;;19.20;99.90;;;;;;4979316;28;20023;-68
2023/08/30 09:48:32;;;;;;;17.20;8.45;;;19.20;99.90;;;;;;4979106;28;20042;-68
2023/08/30 09:50:59;;;;;;;14.02;8.07;;;19.10;99.90;;;;;;4994853;28;20065;-68
2023/08/30 09:53:29;;;;;;;12.60;7.78;;;19.20;99.90;;;;;;4994477;28;20019;-68
2023/08/30 09:55:55;;;;;;;14.40;7.95;;;19.30;99.90;;;;;;4978658;28;20031;-68
2023/08/30 09:58:24;;;;;;;13.63;7.68;;;19.40;99.90;;;;;;4977960;28;20023;-68
2023/08/30 10:00:50;;;;;;;13.45;8.25;;;19.50;99.90;;;;;;4978319;28;20069;-68
2023/08/30 10:03:18;;;;;;;13.52;8.05;;;19.60;99.90;;;;;;4994311;28;20046;-68
2023/08/30 10:05:45;;;;;;;12.52;8.40;;;19.40;99.90;;;;;;4994160;28;20027;-67
2023/08/30 10:08:12;;;;;;;14.43;8.57;;;19.10;99.90;;;;;;4993969;28;20022;-67
2023/08/30 10:10:39;;;;;;;15.70;8.40;;;19.10;99.90;;;;;;4977834;28;20034;-67
2023/08/30 10:13:06;;;;;;;10.98;7.28;;;19.00;99.90;;;;;;4978713;28;20030;-67
2023/08/30 10:15:35;;;;;;;9.02;6.30;;;18.90;99.90;;;;;;4978663;28;20125;-68
2023/08/30 10:18:02;;;;;;;9.52;5.80;;;19.10;99.90;;;;;;4978630;28;20026;-68
2023/08/30 10:20:28;;;;;;;10.50;5.05;;;19.20;99.90;;;;;;4994489;28;20026;-68
2023/08/30 10:22:56;;;;;;;10.38;5.45;;;19.20;99.90;;;;;;4993956;28;20130;-68
2023/08/30 10:25:26;;;;;;;11.93;6.15;;;19.40;99.90;;;;;;4993826;28;20027;-68
2023/08/30 10:27:53;;;;;;;12.60;6.20;;;19.70;99.90;;;;;;4978410;28;20019;-68
2023/08/30 10:30:20;;;;;;;10.50;5.75;;;20.00;99.90;;;;;;4978693;28;20027;-68
2023/08/30 10:32:45;;;;;;;8.82;5.00;;;20.00;99.90;;;;;;4994053;28;20023;-68
2023/08/30 10:35:15;;;;;;;8.45;4.97;;;20.10;99.90;;;;;;4994085;28;20050;-68
2023/08/30 10:37:42;;;;;;;8.73;4.90;;;20.00;99.90;;;;;;4993777;28;20057;-68
2023/08/30 10:40:09;;;;;;;9.68;5.55;;;20.00;99.90;;;;;;4978221;28;20023;-68
2023/08/30 10:42:34;;;;;;;8.82;4.68;;;20.00;99.90;;;;;;4977305;28;20033;-68
2023/08/30 10:45:04;;;;;;;15.00;4.68;;;19.90;99.90;;;;;;4993769;28;20082;-68
2023/08/30 10:47:31;;;;;;;6.78;4.50;;;20.00;99.90;;;;;;4993900;28;20019;-68
2023/08/30 10:50:04;;;;;;;9.48;6.03;;;20.30;99.90;;;;;;4993610;28;20072;-68
2023/08/30 10:52:30;;;;;;;6.18;3.72;;;20.40;99.90;;;;;;4978276;28;20086;-68
2023/08/30 10:55:05;;;;;;;5.28;3.13;;;20.90;99.90;;;;;;4977277;28;20019;-68
2023/08/30 10:57:30;;;;;;;3.45;2.85;;;21.60;99.90;;;;;;4993492;28;20029;-68
2023/08/30 11:00:09;;;;;;;2.50;2.05;;;21.70;99.90;;;;;;4993484;28;20109;-68
2023/08/30 11:02:36;;;;;;;3.17;2.38;;;21.60;99.90;;;;;;4993608;28;20038;-68
2023/08/30 11:05:03;;;;;;;3.33;2.30;;;21.60;99.90;;;;;;4978103;28;20023;-68
2023/08/30 11:07:29;;;;;;;5.90;2.70;;;21.50;99.90;;;;;;4978038;28;20026;-68
2023/08/30 11:09:55;;;;;;;6.05;2.63;;;21.40;99.90;;;;;;4993296;28;20027;-68
2023/08/30 11:12:25;;;;;;;3.60;2.40;;;21.40;99.90;;;;;;4977952;28;20023;-68
2023/08/30 11:14:51;;;;;;;4.43;2.17;;;21.20;99.90;;;;;;4993365;28;20023;-68
2023/08/30 11:17:17;;;;;;;5.70;2.70;;;21.20;99.90;;;;;;4993830;28;20067;-68
2023/08/30 11:19:43;;;;;;;3.72;2.50;;;21.60;99.90;;;;;;4993680;28;20030;-68
2023/08/30 11:22:09;;;;;;;3.30;2.20;;;21.90;99.90;;;;;;4993629;28;20031;-68
2023/08/30 11:24:35;;;;;;;3.67;2.58;;;21.90;99.90;;;;;;4976982;28;20080;-68
2023/08/30 11:27:01;;;;;;;3.67;2.67;;;22.30;99.90;;;;;;4994716;28;20031;-68
2023/08/30 11:29:29;;;;;;;5.18;2.72;;;22.70;99.90;;;;;;4984777;28;20034;-68
2023/08/30 11:31:55;;;;;;;3.42;2.20;;;22.90;99.90;;;;;;4987590;28;20031;-68
2023/08/30 11:34:22;;;;;;;4.75;3.03;;;22.90;99.90;;;;;;4984275;28;20034;-68
2023/08/30 11:36:49;;;;;;;6.13;3.67;;;22.80;99.90;;;;;;4979508;28;20031;-68
2023/08/30 11:39:16;;;;;;;3.08;2.15;;;23.00;99.90;;;;;;4977006;28;20023;-68
2023/08/30 11:41:42;;;;;;;4.70;2.75;;;23.00;99.90;;;;;;4977617;28;20026;-67
2023/08/30 11:44:08;;;;;;;6.57;2.85;;;23.00;99.90;;;;;;4978280;28;20030;-67
2023/08/30 11:46:33;;;;;;;4.20;2.50;;;23.00;99.90;;;;;;4977333;28;20031;-68
2023/08/30 11:49:00;;;;;;;11.95;2.90;;;22.80;99.90;;;;;;4977564;28;20031;-67
2023/08/30 11:51:25;;;;;;;4.70;3.05;;;22.50;99.90;;;;;;4980774;28;20031;-67
2023/08/30 11:53:54;;;;;;;3.25;2.20;;;22.30;99.90;;;;;;4981192;28;20049;-67
2023/08/30 11:56:19;;;;;;;2.42;2.13;;;22.00;99.90;;;;;;4981187;28;20018;-68
2023/08/30 11:58:45;;;;;;;4.18;2.08;;;21.80;99.90;;;;;;4993854;28;20041;-67
2023/08/30 12:01:11;;;;;;;6.57;2.22;;;21.60;99.90;;;;;;4999670;28;20030;-67
2023/08/30 12:03:37;;;;;;;2.97;2.30;;;21.40;99.90;;;;;;4995053;28;20034;-67
2023/08/30 12:06:09;;;;;;;3.58;2.75;;;21.30;99.90;;;;;;4994989;28;20033;-68
2023/08/30 12:08:34;;;;;;;3.95;2.53;;;21.20;99.90;;;;;;4990606;28;20061;-68
2023/08/30 12:11:01;;;;;;;4.70;2.03;;;21.40;99.90;;;;;;4990617;28;20023;-67
2023/08/30 12:13:29;;;;;;;4.90;2.15;;;21.60;99.90;;;;;;4988820;28;20017;-68
2023/08/30 12:15:56;;;;;;;3.95;2.60;;;21.70;99.90;;;;;;4989221;28;20027;-67
2023/08/30 12:18:24;;;;;;;4.47;2.10;;;21.90;99.90;;;;;;4989965;28;20023;-67
2023/08/30 12:21:03;;;;;;;2.58;2.05;;;22.20;99.90;;;;;;4988375;28;20098;-67
2023/08/30 12:23:31;;;;;;;5.35;2.30;;;22.50;99.90;;;;;;4988867;28;20038;-67
2023/08/30 12:26:03;;;;;;;5.00;2.45;;;22.50;99.90;;;;;;4993669;28;20034;-68
2023/08/30 12:28:31;;;;;;;2.95;2.60;;;22.50;99.90;;;;;;4999978;28;20018;-68
2023/08/30 12:30:57;;;;;;;3.42;1.90;;;22.50;99.90;;;;;;4998947;28;20049;-67
2023/08/30 12:33:25;;;;;;;2.30;2.00;;;23.10;99.90;;;;;;4999431;28;20025;-68
2023/08/30 12:35:51;;;;;;;6.18;2.22;;;24.10;99.90;;;;;;4999020;28;20026;-68
2023/08/30 12:38:19;;;;;;;5.00;2.50;;;24.60;99.90;;;;;;5000091;28;20026;-68